createdAt,value
2018-07-28T20:40:52.874Z,6.85
2018-07-28T20:43:24.227Z,8.15
2018-07-28T20:45:55.674Z,10.10
2018-07-28T20:48:27.073Z,33.35
2018-07-28T20:50:58.500Z,25.92
2018-07-28T20:53:29.823Z,16.95
2018-07-28T20:56:01.171Z,11.17
2018-07-28T21:02:56.660Z,7.30
2018-07-28T21:05:27.912Z,6.60
2018-07-28T21:07:59.498Z,11.75
2018-07-28T21:10:30.889Z,37.67
2018-07-28T21:13:02.371Z,58.70
2018-07-28T21:15:33.666Z,19.15
2018-07-28T21:18:05.039Z,14.50
2018-07-28T21:20:36.454Z,8.30
2018-07-28T21:23:07.746Z,6.85
2018-07-28T21:25:39.027Z,6.37
2018-07-28T21:28:10.316Z,6.00
2018-07-28T21:30:41.728Z,5.60
2018-07-28T21:33:12.991Z,5.90
2018-07-28T21:35:44.313Z,5.70
2018-07-28T21:38:20.560Z,13.57
2018-07-28T21:40:51.980Z,69.03
2018-07-28T21:43:23.302Z,135.90
2018-07-28T21:45:54.652Z,47.00
2018-07-28T21:48:26.111Z,16.00
2018-07-28T21:50:57.457Z,9.77
2018-07-28T21:53:28.821Z,10.47
2018-07-28T21:56:00.186Z,67.57
2018-07-28T21:58:31.456Z,101.43
2018-07-28T22:01:09.406Z,49.00
2018-07-28T22:03:43.030Z,22.83
2018-07-28T22:06:14.710Z,11.25
2018-07-28T22:08:46.726Z,8.20
2018-07-28T22:11:18.052Z,7.20
2018-07-28T22:13:49.280Z,5.70
2018-07-28T22:16:20.565Z,6.17
2018-07-28T22:18:51.897Z,5.73
2018-07-28T22:21:23.254Z,6.13
2018-07-28T22:23:54.624Z,7.03
2018-07-28T22:26:25.943Z,8.70
2018-07-28T22:28:57.286Z,10.97
2018-07-28T22:31:28.667Z,9.17
2018-07-28T22:33:59.974Z,8.17
2018-07-28T22:36:31.246Z,8.03
2018-07-28T22:39:02.679Z,8.60
2018-07-28T22:41:33.944Z,8.43
2018-07-28T22:44:05.307Z,8.20
2018-07-28T22:46:36.623Z,7.20
2018-07-28T22:49:07.879Z,6.47
2018-07-28T22:51:39.369Z,7.03
2018-07-28T22:54:10.651Z,6.07
2018-07-28T22:56:41.942Z,5.23
2018-07-28T22:59:13.184Z,4.53
2018-07-28T23:01:44.690Z,4.37
2018-07-28T23:04:15.963Z,5.57
2018-07-28T23:06:47.266Z,12.40
2018-07-28T23:09:18.574Z,14.73
2018-07-28T23:11:49.948Z,10.80
2018-07-28T23:14:21.238Z,8.38
2018-07-28T23:16:52.506Z,6.10
2018-07-28T23:19:23.704Z,5.23
2018-07-28T23:21:54.986Z,4.70
2018-07-28T23:24:26.363Z,4.07
2018-07-28T23:26:57.682Z,4.10
2018-07-28T23:29:29.007Z,4.47
2018-07-28T23:32:00.302Z,5.87
2018-07-28T23:34:32.335Z,7.70
2018-07-28T23:37:03.632Z,8.40
2018-07-28T23:39:34.924Z,6.93
2018-07-28T23:42:06.347Z,5.80
2018-07-28T23:44:37.617Z,4.40
2018-07-28T23:47:08.888Z,4.50
2018-07-28T23:49:40.088Z,6.60
2018-07-28T23:52:11.374Z,8.33
2018-07-28T23:54:42.704Z,7.53
2018-07-28T23:57:14.021Z,5.90
2018-07-28T23:59:45.479Z,5.20
